Time;durP1;ratioP1;P1;durP2;ratioP2;P2;SDS_P1;SDS_P2;PMS_P1;PMS_P2;Temp;Humidity;BMP_temperature;BMP_pressure;BME280_temperature;BME280_humidity;BME280_pressure;Samples;Min_cycle;Max_cycle;Signal;HPM_P1;HPM_P2
2023/04/29 00:00:10;;;;;;;1999.90;999.90;;;11.10;99.90;;;;;;5073344;28;20482;-75
2023/04/29 00:02:35;;;;;;;1999.90;999.90;;;11.10;99.90;;;;;;5077037;28;20485;-75
2023/04/29 00:05:03;;;;;;;1999.90;999.90;;;11.10;99.90;;;;;;5058613;28;20040;-75
2023/04/29 00:07:32;;;;;;;1999.90;999.90;;;11.00;99.90;;;;;;5069414;28;20024;-75
2023/04/29 00:09:58;;;;;;;1999.90;999.90;;;11.00;99.90;;;;;;5058590;28;20028;-75
2023/04/29 00:12:24;;;;;;;1999.90;999.90;;;11.00;99.90;;;;;;5071950;28;20401;-75
2023/04/29 00:14:50;;;;;;;1999.90;999.90;;;11.10;99.90;;;;;;5069290;28;20037;-75
2023/04/29 00:17:16;;;;;;;1999.90;999.90;;;11.00;99.90;;;;;;5073922;28;20492;-75
2023/04/29 00:19:42;;;;;;;1999.90;999.90;;;11.00;99.90;;;;;;5050197;28;20036;-75
2023/04/29 00:22:08;;;;;;;1999.90;999.90;;;11.00;99.90;;;;;;5063406;28;20040;-75
2023/04/29 00:24:33;;;;;;;1999.90;999.90;;;11.10;99.90;;;;;;5065597;28;20535;-75
2023/04/29 00:27:01;;;;;;;1999.90;999.90;;;11.00;99.90;;;;;;5068823;28;20053;-76
2023/04/29 00:29:27;;;;;;;1999.90;999.90;;;11.00;99.90;;;;;;5056340;28;20029;-75
2023/04/29 00:31:52;;;;;;;1999.90;999.90;;;11.00;99.90;;;;;;5071851;28;20219;-75
2023/04/29 00:34:18;;;;;;;1999.90;999.90;;;11.10;99.90;;;;;;5059098;28;20040;-75
2023/04/29 00:36:44;;;;;;;1999.90;999.90;;;11.10;99.90;;;;;;5072622;28;20029;-75
2023/04/29 00:39:10;;;;;;;1999.90;999.90;;;11.20;99.90;;;;;;5055321;28;20535;-75
2023/04/29 00:41:36;;;;;;;1999.90;999.90;;;11.30;99.90;;;;;;5074495;28;20028;-75
2023/04/29 00:44:02;;;;;;;1999.90;999.90;;;11.40;99.90;;;;;;5067634;28;20024;-75
2023/04/29 00:46:28;;;;;;;1999.90;999.90;;;11.50;99.90;;;;;;5059326;28;20745;-75
2023/04/29 00:48:53;;;;;;;1999.90;999.90;;;11.60;99.90;;;;;;5059289;28;20039;-75
2023/04/29 00:51:19;;;;;;;1999.90;999.90;;;11.60;99.90;;;;;;5055373;28;20041;-75
2023/04/29 00:53:45;;;;;;;1999.90;999.90;;;11.60;99.90;;;;;;5073936;28;20398;-75
2023/04/29 00:56:12;;;;;;;1999.90;999.90;;;11.60;99.90;;;;;;5056503;28;20127;-75
2023/04/29 00:58:38;;;;;;;1999.90;999.90;;;11.60;99.90;;;;;;5062532;28;20174;-75
2023/04/29 01:01:04;;;;;;;1999.90;999.90;;;11.70;99.90;;;;;;5052178;28;20838;-75
2023/04/29 01:03:31;;;;;;;1999.90;999.90;;;11.70;99.90;;;;;;5068648;28;20398;-75
2023/04/29 01:06:29;;;;;;;1999.90;999.90;;;11.70;99.90;;;;;;5072670;28;20028;-75
2023/04/29 01:08:54;;;;;;;1999.90;999.90;;;11.70;99.90;;;;;;5077659;28;20032;-75
2023/04/29 01:11:24;;;;;;;1999.90;999.90;;;11.60;99.90;;;;;;5076911;28;20028;-75
2023/04/29 01:13:57;;;;;;;1999.90;999.90;;;11.60;99.90;;;;;;5058997;28;20095;-75
2023/04/29 01:16:36;;;;;;;1999.90;999.90;;;11.60;99.90;;;;;;5061454;28;20041;-75
2023/04/29 01:19:30;;;;;;;1999.90;999.90;;;11.70;99.90;;;;;;5044835;28;20766;-75
2023/04/29 01:21:56;;;;;;;1999.90;999.90;;;11.70;99.90;;;;;;5061178;28;20051;-75
2023/04/29 01:24:21;;;;;;;1999.90;999.90;;;11.60;99.90;;;;;;5055510;28;20428;-75
2023/04/29 01:27:13;;;;;;;1999.90;999.90;;;11.60;99.90;;;;;;5065394;28;20139;-75
2023/04/29 01:30:06;;;;;;;1999.90;999.90;;;11.70;99.90;;;;;;5075214;28;20146;-75
2023/04/29 01:32:36;;;;;;;1999.90;999.90;;;11.60;99.90;;;;;;5075302;28;20034;-75
2023/04/29 01:35:31;;;;;;;1999.90;999.90;;;11.70;99.90;;;;;;5073812;28;20033;-75
2023/04/29 01:38:17;;;;;;;1999.90;999.90;;;11.70;99.90;;;;;;5042915;28;20044;-75
2023/04/29 01:41:07;;;;;;;1999.90;999.90;;;11.70;99.90;;;;;;5076324;28;20521;-74
2023/04/29 01:43:36;;;;;;;1999.90;999.90;;;11.70;99.90;;;;;;5080105;28;20201;-75
2023/04/29 01:46:05;;;;;;;1999.90;999.90;;;11.70;99.90;;;;;;5057316;28;20040;-75
2023/04/29 01:48:31;;;;;;;1999.90;999.90;;;11.70;99.90;;;;;;5074682;28;20024;-75
2023/04/29 01:50:57;;;;;;;1999.90;999.90;;;11.70;99.90;;;;;;5079682;28;20028;-76
2023/04/29 01:53:22;;;;;;;1999.90;999.90;;;11.70;99.90;;;;;;5058123;28;20504;-75
2023/04/29 01:55:48;;;;;;;1999.90;999.90;;;11.80;99.90;;;;;;5076701;28;20394;-75
2023/04/29 01:58:14;;;;;;;1999.90;999.90;;;11.70;99.90;;;;;;5072657;28;20505;-74
2023/04/29 02:00:40;;;;;;;1999.90;999.90;;;11.80;99.90;;;;;;5052254;28;20036;-75
2023/04/29 02:03:06;;;;;;;1999.90;999.90;;;11.80;99.90;;;;;;5063144;28;20039;-75
2023/04/29 02:05:32;;;;;;;1999.90;999.90;;;11.80;99.90;;;;;;5054994;28;20033;-75
2023/04/29 02:07:59;;;;;;;1999.90;999.90;;;11.80;99.90;;;;;;5076298;28;20036;-75
2023/04/29 02:10:26;;;;;;;1999.90;999.90;;;11.80;99.90;;;;;;5075758;28;20029;-75
2023/04/29 02:12:52;;;;;;;1999.90;999.90;;;11.80;99.90;;;;;;5076795;28;20036;-75
2023/04/29 02:15:18;;;;;;;1999.90;999.90;;;11.80;99.90;;;;;;5053103;28;20040;-75
2023/04/29 02:17:45;;;;;;;1999.90;999.90;;;11.80;99.90;;;;;;5075324;28;20032;-75
2023/04/29 02:20:11;;;;;;;1999.90;999.90;;;11.70;99.90;;;;;;5059338;28;20050;-75
2023/04/29 02:22:38;;;;;;;1999.90;999.90;;;11.70;99.90;;;;;;5080075;28;20041;-75
2023/04/29 02:25:04;;;;;;;1999.90;999.90;;;11.70;99.90;;;;;;5074430;28;20160;-76
2023/04/29 02:27:29;;;;;;;1999.90;999.90;;;11.70;99.90;;;;;;5043250;28;20086;-75
2023/04/29 02:29:56;;;;;;;1999.90;999.90;;;11.70;99.90;;;;;;5065633;28;20052;-75
2023/04/29 02:32:22;;;;;;;1999.90;999.90;;;11.70;99.90;;;;;;5060954;28;20028;-76
2023/04/29 02:34:48;;;;;;;1999.90;999.90;;;11.70;99.90;;;;;;5055487;28;20033;-75
2023/04/29 02:37:14;;;;;;;1999.90;999.90;;;11.70;99.90;;;;;;5057994;28;20060;-75
2023/04/29 02:39:40;;;;;;;1999.90;999.90;;;11.60;99.90;;;;;;5060073;28;20051;-75
2023/04/29 02:42:06;;;;;;;1999.90;999.90;;;11.60;99.90;;;;;;5074289;28;20024;-75
2023/04/29 02:44:32;;;;;;;1999.90;999.90;;;11.60;99.90;;;;;;5054507;28;20029;-75
2023/04/29 02:46:58;;;;;;;1999.90;999.90;;;11.50;99.90;;;;;;5059770;28;20036;-75
2023/04/29 02:49:23;;;;;;;1999.90;999.90;;;11.60;99.90;;;;;;5075118;28;20040;-75
2023/04/29 02:51:49;;;;;;;1999.90;999.90;;;11.60;99.90;;;;;;5063546;28;20119;-75
2023/04/29 02:54:18;;;;;;;1999.90;999.90;;;11.60;99.90;;;;;;5070833;28;20093;-75
2023/04/29 02:56:43;;;;;;;1999.90;999.90;;;11.60;99.90;;;;;;5073454;28;20502;-75
2023/04/29 02:59:09;;;;;;;1999.90;999.90;;;11.60;99.90;;;;;;5071847;28;20074;-75
2023/04/29 03:01:37;;;;;;;1999.90;999.90;;;11.60;99.90;;;;;;5062861;28;20031;-75
2023/04/29 03:04:03;;;;;;;1999.90;999.90;;;11.70;99.90;;;;;;5071763;28;20031;-75
2023/04/29 03:06:29;;;;;;;1999.90;999.90;;;11.60;99.90;;;;;;5060105;28;20761;-75
2023/04/29 03:08:54;;;;;;;1999.90;999.90;;;11.60;99.90;;;;;;5074990;28;20039;-75
2023/04/29 03:11:20;;;;;;;1999.90;999.90;;;11.60;99.90;;;;;;5056318;28;20075;-75
2023/04/29 03:13:46;;;;;;;1999.90;999.90;;;11.70;99.90;;;;;;5057418;28;20032;-75
2023/04/29 03:16:13;;;;;;;1999.90;999.90;;;11.70;99.90;;;;;;5062936;28;20036;-75
2023/04/29 03:18:39;;;;;;;1999.90;999.90;;;11.70;99.90;;;;;;5073323;28;20115;-75
2023/04/29 03:21:05;;;;;;;1999.90;999.90;;;11.70;99.90;;;;;;5061736;28;20024;-75
2023/04/29 03:23:30;;;;;;;1999.90;999.90;;;11.70;99.90;;;;;;5050235;28;20106;-75
2023/04/29 03:25:56;;;;;;;1999.90;999.90;;;11.70;99.90;;;;;;5073792;28;20363;-76
2023/04/29 03:28:22;;;;;;;1999.90;999.90;;;11.70;99.90;;;;;;5073976;28;20406;-75
2023/04/29 03:30:48;;;;;;;1999.90;999.90;;;11.70;99.90;;;;;;5073308;28;20021;-76
2023/04/29 03:33:14;;;;;;;1999.90;999.90;;;11.70;99.90;;;;;;5071282;28;20024;-75
2023/04/29 03:35:39;;;;;;;1999.90;999.90;;;11.70;99.90;;;;;;5075137;28;20039;-74
2023/04/29 03:38:05;;;;;;;1999.90;999.90;;;11.70;99.90;;;;;;5070245;28;20497;-75
2023/04/29 03:40:31;;;;;;;1999.90;999.90;;;11.70;99.90;;;;;;5075440;28;20024;-75
2023/04/29 03:42:57;;;;;;;1999.90;999.90;;;11.70;99.90;;;;;;5077223;28;20032;-74
2023/04/29 03:45:22;;;;;;;1999.90;999.90;;;11.70;99.90;;;;;;5071581;28;20060;-75
2023/04/29 03:47:48;;;;;;;1999.90;999.90;;;11.70;99.90;;;;;;5067934;28;20094;-74
2023/04/29 03:50:14;;;;;;;1999.90;999.90;;;11.70;99.90;;;;;;5048520;28;20122;-75
2023/04/29 03:52:39;;;;;;;1999.90;999.90;;;11.70;99.90;;;;;;5066170;28;20032;-76
2023/04/29 03:55:06;;;;;;;1999.90;999.90;;;11.70;99.90;;;;;;5056134;28;20040;-75
2023/04/29 03:57:31;;;;;;;1999.90;999.90;;;11.70;99.90;;;;;;5061300;28;20124;-75
2023/04/29 03:59:57;;;;;;;1999.90;999.90;;;11.60;99.90;;;;;;5067826;28;20452;-75
2023/04/29 04:02:23;;;;;;;1999.90;999.90;;;11.60;99.90;;;;;;5055485;28;20028;-75
2023/04/29 04:04:48;;;;;;;1999.90;999.90;;;11.60;99.90;;;;;;5066888;28;20037;-75
2023/04/29 04:07:14;;;;;;;1999.90;999.90;;;11.70;99.90;;;;;;5058065;28;20031;-75
2023/04/29 04:09:40;;;;;;;1999.90;999.90;;;11.70;99.90;;;;;;5071837;28;20033;-75
2023/04/29 04:12:06;;;;;;;1999.90;999.90;;;11.70;99.90;;;;;;5038943;28;20032;-75
2023/04/29 04:14:32;;;;;;;1999.90;999.90;;;11.70;99.90;;;;;;5055070;28;20075;-75
2023/04/29 04:16:57;;;;;;;1999.90;999.90;;;11.70;99.90;;;;;;5072450;28;20494;-75
2023/04/29 04:19:23;;;;;;;1999.90;999.90;;;11.70;99.90;;;;;;5073289;28;20043;-75
2023/04/29 04:21:49;;;;;;;1999.90;999.90;;;11.70;99.90;;;;;;5074181;28;20039;-75
2023/04/29 04:24:15;;;;;;;1999.90;999.90;;;11.70;99.90;;;;;;5056181;28;20849;-76
2023/04/29 04:26:41;;;;;;;1999.90;999.90;;;11.70;99.90;;;;;;5074474;28;20036;-76
2023/04/29 04:29:07;;;;;;;1999.90;999.90;;;11.70;99.90;;;;;;5057945;28;20055;-75
2023/04/29 04:31:33;;;;;;;1999.90;999.90;;;11.70;99.90;;;;;;5073852;28;20029;-75
2023/04/29 04:33:59;;;;;;;1999.90;999.90;;;11.70;99.90;;;;;;5073558;28;20028;-75
2023/04/29 04:36:27;;;;;;;1999.90;999.90;;;11.70;99.90;;;;;;5073870;28;20501;-74
2023/04/29 04:38:52;;;;;;;1999.90;999.90;;;11.80;99.90;;;;;;5071690;28;20036;-75
2023/04/29 04:41:19;;;;;;;1999.90;999.90;;;11.80;99.90;;;;;;5073735;28;20440;-75
2023/04/29 04:43:48;;;;;;;1999.90;999.90;;;11.70;99.90;;;;;;5072105;28;20029;-75
2023/04/29 04:46:15;;;;;;;1999.90;999.90;;;11.80;99.90;;;;;;5059739;28;20524;-75
2023/04/29 04:48:42;;;;;;;1999.90;999.90;;;11.80;99.90;;;;;;5072878;28;20134;-75
2023/04/29 04:51:12;;;;;;;1999.90;999.90;;;11.80;99.90;;;;;;5073332;28;20037;-76
2023/04/29 04:53:38;;;;;;;1999.90;999.90;;;11.80;99.90;;;;;;5068465;28;20036;-75
2023/04/29 04:56:05;;;;;;;1999.90;999.90;;;11.70;99.90;;;;;;5070933;28;20040;-75
2023/04/29 04:58:32;;;;;;;1999.90;999.90;;;11.80;99.90;;;;;;5069036;28;20418;-75
2023/04/29 05:00:59;;;;;;;1999.90;999.90;;;11.80;99.90;;;;;;5074491;28;20036;-75
2023/04/29 05:03:25;;;;;;;1999.90;999.90;;;11.70;99.90;;;;;;5069446;28;20081;-75
2023/04/29 05:05:58;;;;;;;1999.90;999.90;;;11.70;99.90;;;;;;5071843;28;20379;-75
2023/04/29 05:08:24;;;;;;;1999.90;999.90;;;11.70;99.90;;;;;;5057509;28;20675;-75
2023/04/29 05:10:50;;;;;;;1999.90;999.90;;;11.80;99.90;;;;;;5075011;28;20040;-75
2023/04/29 05:13:17;;;;;;;1999.90;999.90;;;11.80;99.90;;;;;;5065050;28;20033;-76
2023/04/29 05:15:43;;;;;;;1999.90;999.90;;;11.90;99.90;;;;;;5066903;28;20060;-75
2023/04/29 05:18:09;;;;;;;1999.90;999.90;;;12.00;99.90;;;;;;5067097;28;20044;-75
2023/04/29 05:20:35;;;;;;;1999.90;999.90;;;12.00;99.90;;;;;;5074430;28;20033;-76
2023/04/29 05:23:01;;;;;;;1999.90;999.90;;;12.00;99.90;;;;;;5071658;28;20032;-77
2023/04/29 05:25:27;;;;;;;1999.90;999.90;;;12.10;99.90;;;;;;5055728;28;20096;-77
2023/04/29 05:27:52;;;;;;;1999.90;999.90;;;12.10;99.90;;;;;;5052138;28;20119;-77
2023/04/29 05:30:18;;;;;;;1999.90;999.90;;;12.20;99.90;;;;;;5058288;28;20103;-76
2023/04/29 05:32:44;;;;;;;1999.90;999.90;;;12.30;99.90;;;;;;5067867;28;20535;-76
2023/04/29 05:35:10;;;;;;;1999.90;999.90;;;12.30;99.90;;;;;;5037990;28;20032;-77
2023/04/29 05:37:36;;;;;;;1999.90;999.90;;;12.20;99.90;;;;;;5056204;28;20047;-77
2023/04/29 05:40:03;;;;;;;1999.90;999.90;;;12.40;99.90;;;;;;5071450;28;20024;-77
2023/04/29 05:42:29;;;;;;;1999.90;999.90;;;12.40;99.90;;;;;;5048611;28;20025;-76
2023/04/29 05:44:54;;;;;;;1999.90;999.90;;;12.50;99.90;;;;;;5071427;28;20069;-77
2023/04/29 05:47:20;;;;;;;1999.90;999.90;;;12.50;99.90;;;;;;5052058;28;20116;-77
2023/04/29 05:49:46;;;;;;;1999.90;999.90;;;12.50;99.90;;;;;;5069764;28;20109;-77
2023/04/29 05:52:12;;;;;;;1999.90;999.90;;;12.60;99.90;;;;;;5070363;28;20025;-76
2023/04/29 05:54:38;;;;;;;1999.90;999.90;;;12.50;99.90;;;;;;5057636;28;20563;-76
2023/04/29 05:57:04;;;;;;;1999.90;999.90;;;12.60;99.90;;;;;;5068787;28;20040;-76
2023/04/29 05:59:30;;;;;;;1999.90;999.90;;;12.80;99.90;;;;;;5057851;28;20032;-77
2023/04/29 06:01:57;;;;;;;1999.90;999.90;;;12.80;99.90;;;;;;5065056;28;20044;-77
2023/04/29 06:04:24;;;;;;;1999.90;999.90;;;12.80;99.90;;;;;;5076241;28;20021;-77
2023/04/29 06:06:50;;;;;;;1999.90;999.90;;;12.80;99.90;;;;;;5052624;28;20029;-77
2023/04/29 06:09:17;;;;;;;1999.90;999.90;;;12.70;99.90;;;;;;5069495;28;20105;-77
2023/04/29 06:11:43;;;;;;;1999.90;999.90;;;12.90;99.90;;;;;;5069949;28;20043;-77
2023/04/29 06:14:09;;;;;;;1999.90;999.90;;;13.20;99.90;;;;;;5062553;28;20093;-75
2023/04/29 06:16:35;;;;;;;1999.90;999.90;;;13.30;99.90;;;;;;5075665;28;20072;-76
2023/04/29 06:19:01;;;;;;;1999.90;999.90;;;13.30;99.90;;;;;;5056142;28;20486;-77
2023/04/29 06:21:27;;;;;;;1999.90;999.90;;;13.50;99.90;;;;;;5054529;28;20028;-77
2023/04/29 06:23:53;;;;;;;1999.90;999.90;;;13.50;99.90;;;;;;5052590;28;20044;-77
2023/04/29 06:26:19;;;;;;;1999.90;999.90;;;13.70;99.90;;;;;;5056344;28;20382;-76
2023/04/29 06:28:46;;;;;;;1999.90;999.90;;;13.90;98.90;;;;;;5058249;28;20127;-77
2023/04/29 06:31:12;;;;;;;1999.90;999.90;;;14.00;98.30;;;;;;5073595;28;20159;-77
2023/04/29 06:33:37;;;;;;;1999.90;999.90;;;13.90;98.00;;;;;;5056868;28;20128;-78
2023/04/29 06:36:03;;;;;;;1999.90;999.90;;;14.10;98.30;;;;;;5073015;28;20024;-78
2023/04/29 06:38:29;;;;;;;1999.90;999.90;;;14.00;97.80;;;;;;5073592;28;20016;-79
2023/04/29 06:40:59;;;;;;;1999.90;999.90;;;14.00;98.00;;;;;;5072011;28;20484;-78
2023/04/29 06:43:31;;;;;;;1999.90;999.90;;;14.10;97.50;;;;;;5055629;28;20035;-79
2023/04/29 06:45:57;;;;;;;1999.90;999.90;;;13.80;96.90;;;;;;5068749;28;20040;-78
2023/04/29 06:48:23;;;;;;;1999.90;999.90;;;13.80;97.60;;;;;;5070899;28;20041;-79
2023/04/29 06:50:56;;;;;;;1999.90;999.90;;;13.70;96.90;;;;;;5055692;28;20025;-81
2023/04/29 06:53:22;;;;;;;1999.90;999.90;;;13.70;97.60;;;;;;5073681;28;20023;-81
2023/04/29 06:55:48;;;;;;;1999.90;999.90;;;13.80;97.30;;;;;;5052256;28;20074;-79
2023/04/29 06:58:17;;;;;;;1999.90;999.90;;;13.80;96.90;;;;;;5047796;28;20044;-80
2023/04/29 07:00:47;;;;;;;1999.90;999.90;;;14.00;97.00;;;;;;5052781;28;20033;-80
2023/04/29 07:03:13;;;;;;;1999.90;999.90;;;14.00;96.50;;;;;;5057152;28;20024;-81
2023/04/29 07:05:40;;;;;;;1999.90;999.90;;;14.10;96.90;;;;;;5057977;28;20040;-81
2023/04/29 07:08:07;;;;;;;1999.90;999.90;;;14.00;96.00;;;;;;5075543;28;20040;-81
2023/04/29 07:10:33;;;;;;;1999.90;999.90;;;14.00;96.30;;;;;;5060170;28;20564;-81
2023/04/29 07:12:59;;;;;;;1999.90;999.90;;;14.00;96.30;;;;;;5060907;28;20048;-80
2023/04/29 07:15:26;;;;;;;1999.90;999.90;;;14.00;95.60;;;;;;5064306;28;20033;-80
2023/04/29 07:17:52;;;;;;;1999.90;999.90;;;14.20;95.10;;;;;;5075023;28;20032;-80
2023/04/29 07:20:18;;;;;;;1999.90;999.90;;;14.20;94.80;;;;;;5040167;28;20037;-81
2023/04/29 07:22:44;;;;;;;1999.90;999.90;;;14.60;95.60;;;;;;5069614;28;20032;-80
2023/04/29 07:25:09;;;;;;;1999.90;999.90;;;14.90;95.40;;;;;;5026353;28;20048;-81
2023/04/29 07:27:36;;;;;;;1999.90;999.90;;;14.80;93.50;;;;;;5031916;28;20051;-80
2023/04/29 07:30:03;;;;;;;1999.90;999.90;;;15.10;92.30;;;;;;5029191;28;20037;-80
2023/04/29 07:32:32;;;;;;;1999.90;999.90;;;15.20;92.30;;;;;;5038060;28;20135;-80
2023/04/29 07:34:58;;;;;;;1999.90;999.90;;;15.40;92.00;;;;;;5023031;28;20111;-77
2023/04/29 07:37:24;;;;;;;1999.90;999.90;;;15.80;92.90;;;;;;5025561;28;20126;-78
2023/04/29 07:39:50;;;;;;;1999.90;999.90;;;16.00;89.60;;;;;;5025615;28;20053;-77
2023/04/29 07:42:16;;;;;;;1999.90;999.90;;;16.00;87.30;;;;;;5028367;28;20036;-79
2023/04/29 07:44:44;;;;;;;1999.90;999.90;;;15.90;87.80;;;;;;5028027;28;20525;-77
2023/04/29 07:47:10;;;;;;;1999.90;999.90;;;16.10;90.40;;;;;;5013188;28;20411;-77
2023/04/29 07:49:36;;;;;;;1999.90;999.90;;;16.10;86.50;;;;;;5020506;28;20107;-79
2023/04/29 07:52:03;;;;;;;1999.90;999.90;;;16.10;86.30;;;;;;5002475;28;20045;-79
2023/04/29 07:54:29;;;;;;;1999.90;999.90;;;15.70;85.10;;;;;;5029790;28;20463;-79
2023/04/29 07:56:57;;;;;;;1999.90;999.90;;;15.60;87.50;;;;;;5030081;28;20045;-79
2023/04/29 07:59:23;;;;;;;1999.90;999.90;;;15.40;86.90;;;;;;5028685;28;20037;-79
2023/04/29 08:01:48;;;;;;;1999.90;999.90;;;15.40;86.50;;;;;;5029400;28;20507;-79
2023/04/29 08:04:14;;;;;;;1999.90;999.90;;;15.80;87.20;;;;;;5025050;28;20030;-79
2023/04/29 08:06:40;;;;;;;1999.90;999.90;;;16.40;87.30;;;;;;5028799;28;20140;-80
2023/04/29 08:09:06;;;;;;;1999.90;999.90;;;16.80;84.10;;;;;;5009706;28;20053;-80
2023/04/29 08:11:32;;;;;;;1999.90;999.90;;;16.70;80.80;;;;;;5022355;28;20037;-77
2023/04/29 08:13:59;;;;;;;1999.90;999.90;;;16.40;82.40;;;;;;5026576;28;20036;-78
2023/04/29 08:16:25;;;;;;;1999.90;999.90;;;16.30;83.40;;;;;;5026424;28;20056;-77
2023/04/29 08:18:52;;;;;;;1999.90;999.90;;;16.70;82.20;;;;;;5029601;28;20506;-80
2023/04/29 08:21:18;;;;;;;1999.90;999.90;;;16.60;81.90;;;;;;5028882;28;20029;-78
2023/04/29 08:23:44;;;;;;;1999.90;999.90;;;16.40;79.90;;;;;;5024186;28;20100;-77
2023/04/29 08:26:11;;;;;;;1999.90;999.90;;;16.80;79.30;;;;;;5027174;28;20404;-77
2023/04/29 08:28:38;;;;;;;1999.90;999.90;;;16.70;76.30;;;;;;5026496;28;20033;-74
2023/04/29 08:31:06;;;;;;;1999.90;999.90;;;16.80;77.10;;;;;;5023156;28;20112;-79
2023/04/29 08:33:33;;;;;;;1999.90;999.90;;;16.90;75.10;;;;;;5030697;28;20025;-78
2023/04/29 08:35:59;;;;;;;1999.90;999.90;;;17.20;77.10;;;;;;5030199;28;20029;-77
2023/04/29 08:38:24;;;;;;;1999.90;999.90;;;17.00;75.80;;;;;;5029490;28;20037;-77
2023/04/29 08:40:50;;;;;;;1999.90;999.90;;;16.90;74.70;;;;;;5031544;28;20029;-74
2023/04/29 08:43:16;;;;;;;1999.90;999.90;;;16.90;75.30;;;;;;5034344;28;20033;-75
2023/04/29 08:45:43;;;;;;;1999.90;999.90;;;16.80;75.10;;;;;;5021391;28;20053;-77
2023/04/29 08:48:09;;;;;;;1999.90;999.90;;;16.60;76.30;;;;;;5024682;28;20041;-77
2023/04/29 08:50:40;;;;;;;1999.90;999.90;;;16.30;77.10;;;;;;5030648;28;20026;-77
2023/04/29 08:53:09;;;;;;;1999.90;999.90;;;16.00;78.10;;;;;;5027055;28;20025;-76
2023/04/29 08:55:36;;;;;;;1999.90;999.90;;;15.60;80.70;;;;;;5025653;28;20026;-76
2023/04/29 08:58:02;;;;;;;1999.90;999.90;;;15.40;80.10;;;;;;5030797;28;20032;-76
2023/04/29 09:00:31;;;;;;;1999.90;999.90;;;15.40;78.00;;;;;;5027847;28;20478;-76
2023/04/29 09:02:59;;;;;;;1999.90;999.90;;;15.20;80.00;;;;;;5031112;28;20037;-76
2023/04/29 09:05:25;;;;;;;1999.90;999.90;;;15.10;80.00;;;;;;5024207;28;20049;-76
2023/04/29 09:07:52;;;;;;;1999.90;999.90;;;15.10;80.40;;;;;;5025217;28;20506;-76
2023/04/29 09:10:18;;;;;;;1999.90;999.90;;;15.80;79.50;;;;;;5031818;28;20040;-77
2023/04/29 09:12:45;;;;;;;1999.90;999.90;;;16.50;76.10;;;;;;5027573;28;20589;-76
2023/04/29 09:15:11;;;;;;;1999.90;999.90;;;16.30;77.00;;;;;;5028211;28;20030;-76
2023/04/29 09:17:48;;;;;;;1999.90;999.90;;;16.10;77.90;;;;;;5029511;28;20041;-76
2023/04/29 09:20:23;;;;;;;1999.90;999.90;;;16.40;75.20;;;;;;5029275;28;20487;-75
2023/04/29 09:22:50;;;;;;;1999.90;999.90;;;16.70;74.80;;;;;;5029914;28;20026;-76
2023/04/29 09:25:16;;;;;;;1999.90;999.90;;;17.20;74.70;;;;;;5062491;28;20048;-76
2023/04/29 09:27:42;;;;;;;1999.90;999.90;;;17.00;71.80;;;;;;5063754;28;20037;-76
2023/04/29 09:30:09;;;;;;;1999.90;999.90;;;17.30;74.20;;;;;;5071373;28;20032;-76
2023/04/29 09:32:35;;;;;;;1999.90;999.90;;;17.70;70.80;;;;;;5072856;28;20029;-75
2023/04/29 09:35:39;;;;;;;1999.90;999.90;;;17.80;70.60;;;;;;5076589;28;20028;-76
2023/04/29 09:38:11;;;;;;;1999.90;999.90;;;17.20;70.50;;;;;;4973855;28;20031;-76
2023/04/29 09:40:37;;;;;;;1999.90;999.90;;;17.50;70.40;;;;;;5045527;28;20047;-76
2023/04/29 09:43:10;;;;;;;1999.90;999.90;;;17.70;69.40;;;;;;5076862;28;20378;-76
2023/04/29 09:45:37;;;;;;;1999.90;999.90;;;18.00;69.80;;;;;;5057911;28;20040;-75
2023/04/29 09:48:07;;;;;;;1999.90;999.90;;;18.10;67.00;;;;;;5072975;28;20542;-76
2023/04/29 09:50:36;;;;;;;1999.90;999.90;;;18.70;68.30;;;;;;5052863;28;20548;-76
2023/04/29 09:53:02;;;;;;;1999.90;999.90;;;18.20;65.90;;;;;;5061409;28;20506;-76
2023/04/29 09:55:28;;;;;;;1999.90;999.90;;;17.90;68.30;;;;;;5059823;28;20055;-76
2023/04/29 09:57:54;;;;;;;1999.90;999.90;;;18.40;67.50;;;;;;5075395;28;20036;-76
2023/04/29 10:00:20;;;;;;;1999.90;999.90;;;18.50;65.30;;;;;;5069563;28;20429;-76
2023/04/29 10:02:47;;;;;;;1999.90;999.90;;;18.50;64.60;;;;;;5074552;28;20025;-75
2023/04/29 10:05:16;;;;;;;1999.90;999.90;;;18.60;65.10;;;;;;5056314;28;20035;-76
2023/04/29 10:07:42;;;;;;;1999.90;999.90;;;18.40;65.60;;;;;;5051467;28;20044;-76
2023/04/29 10:10:10;;;;;;;1999.90;999.90;;;18.40;64.00;;;;;;5077728;28;20405;-76
2023/04/29 10:12:37;;;;;;;1999.90;999.90;;;18.00;65.00;;;;;;5066578;28;20064;-76
2023/04/29 10:15:07;;;;;;;1999.90;999.90;;;17.70;65.00;;;;;;5034311;28;20038;-76
2023/04/29 10:17:46;;;;;;;1999.90;999.90;;;17.60;64.20;;;;;;5068241;28;20036;-77
2023/04/29 10:20:22;;;;;;;1999.90;999.90;;;17.60;64.90;;;;;;5068866;28;20124;-77
2023/04/29 10:22:49;;;;;;;1999.90;999.90;;;18.70;63.80;;;;;;5057433;28;20024;-77
2023/04/29 10:25:17;;;;;;;1999.90;999.90;;;18.70;61.00;;;;;;5059983;28;20081;-75
2023/04/29 10:27:44;;;;;;;1999.90;999.90;;;18.80;62.40;;;;;;5053720;28;20119;-75
2023/04/29 10:30:14;;;;;;;1999.90;999.90;;;18.80;63.20;;;;;;5055641;28;20032;-75
2023/04/29 10:32:41;;;;;;;1999.90;999.90;;;18.90;64.20;;;;;;5070387;28;20462;-75
2023/04/29 10:35:09;;;;;;;1999.90;999.90;;;18.90;62.70;;;;;;5043576;28;20036;-75
2023/04/29 10:37:36;;;;;;;1999.90;999.90;;;18.90;61.50;;;;;;5068120;28;20032;-75
2023/04/29 10:40:04;;;;;;;1999.90;999.90;;;18.70;61.40;;;;;;5070773;28;20025;-74
2023/04/29 10:42:42;;;;;;;1999.90;999.90;;;18.70;60.40;;;;;;5055533;28;20085;-75
2023/04/29 10:45:27;;;;;;;1999.90;999.90;;;18.50;61.40;;;;;;5072222;28;20024;-75
2023/04/29 10:48:01;;;;;;;1999.90;999.90;;;18.70;59.40;;;;;;5075575;28;20037;-75
2023/04/29 10:50:48;;;;;;;1999.90;999.90;;;19.00;60.90;;;;;;5071509;28;20033;-75
2023/04/29 10:53:15;;;;;;;1999.90;999.90;;;19.40;58.40;;;;;;5051589;28;20037;-74
2023/04/29 10:55:41;;;;;;;1999.90;999.90;;;19.90;57.20;;;;;;5052896;28;20043;-75
2023/04/29 10:58:43;;;;;;;1999.90;999.90;;;18.80;57.40;;;;;;5074834;28;20085;-76
2023/04/29 11:01:11;;;;;;;1999.90;999.90;;;19.20;56.70;;;;;;4959885;28;20046;-75
2023/04/29 11:04:01;;;;;;;1999.90;999.90;;;20.10;55.40;;;;;;5036541;28;20066;-75
2023/04/29 11:06:36;;;;;;;1999.90;999.90;;;20.60;53.40;;;;;;5061385;28;20112;-74
2023/04/29 11:09:06;;;;;;;1999.90;999.90;;;20.80;51.20;;;;;;5056103;28;20401;-74
2023/04/29 11:11:59;;;;;;;1999.90;999.90;;;21.00;51.90;;;;;;5070862;28;20043;-76
2023/04/29 11:14:35;;;;;;;1999.90;999.90;;;21.00;49.20;;;;;;5061503;28;20029;-78
2023/04/29 11:17:11;;;;;;;1999.90;999.90;;;22.40;49.40;;;;;;5065918;28;20032;-74
2023/04/29 11:19:49;;;;;;;1999.90;999.90;;;21.60;49.80;;;;;;5066281;28;20044;-80
2023/04/29 11:22:19;;;;;;;1999.90;999.90;;;22.80;46.70;;;;;;5057000;28;20119;-76
2023/04/29 11:25:24;;;;;;;1999.90;999.90;;;21.90;47.50;;;;;;5067905;28;20040;-78
2023/04/29 11:27:51;;;;;;;1999.90;999.90;;;22.40;47.80;;;;;;5006232;28;20044;-78
2023/04/29 11:30:18;;;;;;;1999.90;999.90;;;21.50;47.00;;;;;;5049840;28;20044;-79
2023/04/29 11:32:44;;;;;;;1999.90;999.90;;;21.80;47.40;;;;;;5056616;28;20046;-78
2023/04/29 11:35:11;;;;;;;1999.90;999.90;;;22.20;45.40;;;;;;5044295;28;20110;-79
2023/04/29 11:37:37;;;;;;;1999.90;999.90;;;22.70;48.00;;;;;;5061239;28;20037;-79
2023/04/29 11:40:05;;;;;;;1999.90;999.90;;;23.00;46.40;;;;;;5061289;28;20546;-79
2023/04/29 11:42:35;;;;;;;1999.90;999.90;;;22.30;45.90;;;;;;5066346;28;20075;-78
2023/04/29 11:45:01;;;;;;;1999.90;999.90;;;21.60;48.70;;;;;;5061758;28;20054;-79
2023/04/29 11:47:30;;;;;;;1999.90;999.90;;;21.90;47.70;;;;;;5070259;28;20031;-79
2023/04/29 11:50:07;;;;;;;1999.90;999.90;;;21.80;46.70;;;;;;5058402;28;20516;-78
2023/04/29 11:52:36;;;;;;;1999.90;999.90;;;22.30;45.10;;;;;;5049298;28;20036;-79
2023/04/29 11:55:03;;;;;;;1999.90;999.90;;;21.50;46.10;;;;;;5075210;28;20036;-78
2023/04/29 11:57:29;;;;;;;1999.90;999.90;;;21.30;45.10;;;;;;5075971;28;20043;-78
2023/04/29 12:00:00;;;;;;;1999.90;999.90;;;22.30;49.80;;;;;;5075928;28;20063;-79
2023/04/29 12:02:33;;;;;;;1999.90;999.90;;;23.30;44.10;;;;;;5057073;28;20550;-79